Time;durP1;ratioP1;P1;durP2;ratioP2;P2;SDS_P1;SDS_P2;PMS_P1;PMS_P2;Temp;Humidity;BMP_temperature;BMP_pressure;BME280_temperature;BME280_humidity;BME280_pressure;Samples;Min_cycle;Max_cycle;Signal;HPM_P1;HPM_P2
2022/12/09 00:00:15;;;;;;;22.02;12.52;;;3.50;99.90;;;;;;5022902;28;20041;-62
2022/12/09 00:02:43;;;;;;;24.48;12.68;;;3.50;99.90;;;;;;5021380;28;20073;-63
2022/12/09 00:05:09;;;;;;;22.30;12.75;;;3.50;99.90;;;;;;5030145;28;20552;-62
2022/12/09 00:07:35;;;;;;;19.55;11.50;;;3.50;99.90;;;;;;5029881;28;20116;-62
2022/12/09 00:10:02;;;;;;;22.40;12.40;;;3.50;99.90;;;;;;5030614;28;20501;-63
2022/12/09 00:12:28;;;;;;;24.77;11.85;;;3.50;99.90;;;;;;5030747;28;20034;-62
2022/12/09 00:14:54;;;;;;;20.45;11.85;;;3.50;99.90;;;;;;5024983;28;20037;-63
2022/12/09 00:17:19;;;;;;;20.88;11.38;;;3.50;99.90;;;;;;5027492;28;20060;-63
2022/12/09 00:19:45;;;;;;;20.42;11.85;;;3.50;99.90;;;;;;5028882;28;20048;-62
2022/12/09 00:22:11;;;;;;;20.75;11.98;;;3.50;99.90;;;;;;5028094;28;20483;-62
2022/12/09 00:24:37;;;;;;;19.38;11.30;;;3.50;99.90;;;;;;5023899;28;20146;-62
2022/12/09 00:27:02;;;;;;;22.90;12.00;;;3.50;99.90;;;;;;5011167;28;20038;-62
2022/12/09 00:29:28;;;;;;;20.10;11.15;;;3.40;99.90;;;;;;5022610;28;20032;-62
2022/12/09 00:31:54;;;;;;;19.48;11.13;;;3.40;99.90;;;;;;5025571;28;20042;-61
2022/12/09 00:34:20;;;;;;;20.17;11.65;;;3.50;99.90;;;;;;5030964;28;20383;-62
2022/12/09 00:36:45;;;;;;;18.52;9.98;;;3.40;99.90;;;;;;5022721;28;20033;-62
2022/12/09 00:39:11;;;;;;;20.40;11.20;;;3.50;99.90;;;;;;5026333;28;20116;-62
2022/12/09 00:41:37;;;;;;;19.50;10.25;;;3.50;99.90;;;;;;5028480;28;20030;-62
2022/12/09 00:44:02;;;;;;;19.17;10.52;;;3.40;99.90;;;;;;5024705;28;20045;-62
2022/12/09 00:46:28;;;;;;;16.60;9.55;;;3.50;99.90;;;;;;5029821;28;20035;-62
2022/12/09 00:48:54;;;;;;;18.92;9.65;;;3.40;99.90;;;;;;5024258;28;20124;-62
2022/12/09 00:51:22;;;;;;;16.08;9.55;;;3.40;99.90;;;;;;5017312;28;20248;-62
2022/12/09 00:53:53;;;;;;;17.00;8.98;;;3.40;99.90;;;;;;5028035;28;20488;-62
2022/12/09 00:56:19;;;;;;;13.93;8.52;;;3.40;99.90;;;;;;5026566;28;20037;-62
2022/12/09 00:58:45;;;;;;;14.57;8.32;;;3.40;99.90;;;;;;5028824;28;20041;-62
2022/12/09 01:01:10;;;;;;;16.38;7.75;;;3.40;99.90;;;;;;5026281;28;20076;-62
2022/12/09 01:03:37;;;;;;;14.93;8.40;;;3.40;99.90;;;;;;5025733;28;20133;-62
2022/12/09 01:06:10;;;;;;;17.60;9.07;;;3.40;99.90;;;;;;5021278;28;20458;-62
2022/12/09 01:08:36;;;;;;;16.10;8.50;;;3.40;99.90;;;;;;5030036;28;20075;-62
2022/12/09 01:11:09;;;;;;;16.98;9.20;;;3.30;99.90;;;;;;5023730;28;20400;-62
2022/12/09 01:13:34;;;;;;;14.98;9.45;;;3.40;99.90;;;;;;5027547;28;20554;-62
2022/12/09 01:16:00;;;;;;;16.63;9.32;;;3.30;99.90;;;;;;5024401;28;20132;-62
2022/12/09 01:18:25;;;;;;;17.40;9.30;;;3.40;99.90;;;;;;5029844;28;20026;-62
2022/12/09 01:20:56;;;;;;;16.65;9.23;;;3.40;99.90;;;;;;5028394;28;20033;-62
2022/12/09 01:23:21;;;;;;;19.77;9.25;;;3.40;99.90;;;;;;5028331;28;20083;-62
2022/12/09 01:25:47;;;;;;;16.15;9.38;;;3.40;99.90;;;;;;5024905;28;20451;-62
2022/12/09 01:28:12;;;;;;;16.70;9.43;;;3.40;99.90;;;;;;5028949;28;20091;-62
2022/12/09 01:30:38;;;;;;;16.85;8.50;;;3.40;99.90;;;;;;5027656;28;20514;-62
2022/12/09 01:33:03;;;;;;;14.57;8.45;;;3.40;99.90;;;;;;5023856;28;20073;-63
2022/12/09 01:35:29;;;;;;;17.83;8.60;;;3.40;99.90;;;;;;5046685;28;20566;-64
2022/12/09 01:37:55;;;;;;;15.82;9.07;;;3.40;99.90;;;;;;5031317;28;20045;-62
2022/12/09 01:40:20;;;;;;;17.05;9.20;;;3.40;99.90;;;;;;5033180;28;20108;-62
2022/12/09 01:42:49;;;;;;;17.98;9.70;;;3.40;99.90;;;;;;5033220;28;20102;-63
2022/12/09 01:45:37;;;;;;;16.95;9.13;;;3.40;99.90;;;;;;5019469;28;20049;-63
2022/12/09 01:48:10;;;;;;;19.50;10.15;;;3.40;99.90;;;;;;5024532;28;20042;-63
2022/12/09 01:50:38;;;;;;;17.70;9.50;;;3.40;99.90;;;;;;5029563;28;20404;-63
2022/12/09 01:53:04;;;;;;;15.90;9.65;;;3.40;99.90;;;;;;5029410;28;20041;-63
2022/12/09 01:55:30;;;;;;;18.77;9.55;;;3.40;99.90;;;;;;5031034;28;20057;-63
2022/12/09 01:57:56;;;;;;;22.30;10.38;;;3.40;99.90;;;;;;5033167;28;20088;-63
2022/12/09 02:00:22;;;;;;;20.45;10.98;;;3.40;99.90;;;;;;5033076;28;20134;-62
2022/12/09 02:02:49;;;;;;;18.90;10.93;;;3.40;99.90;;;;;;5021729;28;20038;-63
2022/12/09 02:05:15;;;;;;;21.73;10.95;;;3.40;99.90;;;;;;5022331;28;20038;-63
2022/12/09 02:07:40;;;;;;;18.35;11.00;;;3.40;99.90;;;;;;5032067;28;20040;-62
2022/12/09 02:10:13;;;;;;;25.08;11.57;;;3.40;99.90;;;;;;5031948;28;20041;-62
2022/12/09 02:12:47;;;;;;;21.05;11.30;;;3.40;99.90;;;;;;5033006;28;20087;-63
2022/12/09 02:15:20;;;;;;;22.75;11.82;;;3.40;99.90;;;;;;5027305;28;20515;-62
2022/12/09 02:17:55;;;;;;;21.85;11.25;;;3.40;99.90;;;;;;5032165;28;20124;-63
2022/12/09 02:20:37;;;;;;;23.95;12.45;;;3.40;99.90;;;;;;5027773;28;20080;-63
2022/12/09 02:23:22;;;;;;;23.65;13.07;;;3.40;99.90;;;;;;5025295;28;20094;-63
2022/12/09 02:25:55;;;;;;;22.58;12.95;;;3.40;99.90;;;;;;5030046;28;20037;-63
2022/12/09 02:28:42;;;;;;;23.88;12.70;;;3.30;99.90;;;;;;5031768;28;20047;-63
2022/12/09 02:31:47;;;;;;;22.95;13.43;;;3.30;99.90;;;;;;5008901;28;20037;-63
2022/12/09 02:34:17;;;;;;;23.17;12.13;;;3.30;99.90;;;;;;5025234;28;20521;-63
2022/12/09 02:36:58;;;;;;;24.17;13.32;;;3.30;99.90;;;;;;5031055;28;20044;-62
2022/12/09 02:39:37;;;;;;;21.85;11.50;;;3.30;99.90;;;;;;5026077;28;20128;-62
2022/12/09 02:42:04;;;;;;;21.92;12.18;;;3.30;99.90;;;;;;5026855;28;20045;-63
2022/12/09 02:44:30;;;;;;;19.73;11.85;;;3.20;99.90;;;;;;5022753;28;20042;-63
2022/12/09 02:46:57;;;;;;;22.15;12.15;;;3.20;99.90;;;;;;5026207;28;21183;-63
2022/12/09 02:49:25;;;;;;;17.67;11.02;;;3.20;99.90;;;;;;5024507;28;20218;-63
2022/12/09 02:51:52;;;;;;;19.60;10.77;;;3.20;99.90;;;;;;5030813;28;20100;-63
2022/12/09 02:54:19;;;;;;;22.33;10.52;;;3.20;99.90;;;;;;5030756;28;20122;-63
2022/12/09 02:56:52;;;;;;;18.02;10.27;;;3.20;99.90;;;;;;5030620;28;20055;-62
2022/12/09 02:59:18;;;;;;;17.75;10.35;;;3.20;99.90;;;;;;5027589;28;20065;-63
2022/12/09 03:01:58;;;;;;;18.92;10.77;;;3.10;99.90;;;;;;5024626;28;20041;-63
2022/12/09 03:04:27;;;;;;;20.73;10.88;;;3.20;99.90;;;;;;5026240;28;20037;-63
2022/12/09 03:06:55;;;;;;;18.90;10.45;;;3.20;99.90;;;;;;5032115;28;20518;-63
2022/12/09 03:09:28;;;;;;;19.77;10.80;;;3.10;99.90;;;;;;5028934;28;20037;-63
2022/12/09 03:11:58;;;;;;;22.45;10.40;;;3.10;99.90;;;;;;5030809;28;20045;-64
2022/12/09 03:14:39;;;;;;;18.88;10.55;;;3.10;99.90;;;;;;5027937;28;20041;-63
2022/12/09 03:17:12;;;;;;;19.58;10.95;;;3.10;99.90;;;;;;5032235;28;20043;-63
2022/12/09 03:19:46;;;;;;;18.45;10.35;;;3.10;99.90;;;;;;5031373;28;20037;-63
2022/12/09 03:22:18;;;;;;;20.17;11.70;;;3.10;99.90;;;;;;5030759;28;20042;-63
2022/12/09 03:25:13;;;;;;;19.20;10.90;;;3.10;99.90;;;;;;5029294;28;20487;-62
2022/12/09 03:27:45;;;;;;;17.25;9.68;;;3.10;99.90;;;;;;5021384;28;20038;-63
2022/12/09 03:30:12;;;;;;;19.13;10.70;;;3.10;99.90;;;;;;5023507;28;20075;-62
2022/12/09 03:32:40;;;;;;;19.08;10.27;;;3.00;99.90;;;;;;5031689;28;20041;-63
2022/12/09 03:35:22;;;;;;;21.10;10.57;;;3.00;99.90;;;;;;5025942;28;20045;-62
2022/12/09 03:37:49;;;;;;;18.75;10.55;;;3.00;99.90;;;;;;5031544;28;20037;-63
2022/12/09 03:40:20;;;;;;;19.17;10.70;;;3.00;99.90;;;;;;5030130;28;20090;-63
2022/12/09 03:42:59;;;;;;;20.63;11.18;;;3.00;99.90;;;;;;5024026;28;20442;-63
2022/12/09 03:45:25;;;;;;;25.23;11.10;;;3.00;99.90;;;;;;5028945;28;20188;-64
2022/12/09 03:47:52;;;;;;;20.70;11.07;;;3.00;99.90;;;;;;5031561;28;20029;-63
2022/12/09 03:50:20;;;;;;;21.25;11.85;;;3.00;99.90;;;;;;5031224;28;20030;-63
2022/12/09 03:53:14;;;;;;;19.88;11.32;;;3.00;99.90;;;;;;5029886;28;20128;-62
2022/12/09 03:55:57;;;;;;;22.05;12.57;;;3.00;99.90;;;;;;5023800;28;20428;-62
2022/12/09 03:58:24;;;;;;;19.70;10.60;;;3.00;99.90;;;;;;5031183;28;20481;-63
2022/12/09 04:00:50;;;;;;;17.13;9.43;;;3.00;99.90;;;;;;5029728;28;20049;-63
2022/12/09 04:03:17;;;;;;;17.23;9.73;;;3.00;99.90;;;;;;5026602;28;20396;-63
2022/12/09 04:05:43;;;;;;;20.35;9.98;;;2.90;99.90;;;;;;5025048;28;20431;-63
2022/12/09 04:08:09;;;;;;;16.40;8.90;;;3.00;99.90;;;;;;5027318;28;20033;-63
2022/12/09 04:10:34;;;;;;;16.42;9.40;;;3.00;99.90;;;;;;5028620;28;20503;-62
2022/12/09 04:13:00;;;;;;;17.05;9.13;;;2.90;99.90;;;;;;5027217;28;20048;-63
2022/12/09 04:15:26;;;;;;;17.55;9.75;;;2.90;99.90;;;;;;5028819;28;20042;-64
2022/12/09 04:17:51;;;;;;;18.77;10.18;;;2.90;99.90;;;;;;5030132;28;20555;-63
2022/12/09 04:20:17;;;;;;;18.90;10.00;;;2.90;99.90;;;;;;5029553;28;20071;-63
2022/12/09 04:22:42;;;;;;;15.57;9.50;;;2.90;99.90;;;;;;5027074;28;20106;-63
2022/12/09 04:25:08;;;;;;;15.88;9.15;;;2.80;99.90;;;;;;5029239;28;20035;-62
2022/12/09 04:27:34;;;;;;;16.48;9.98;;;2.80;99.90;;;;;;5024800;28;20480;-62
2022/12/09 04:30:00;;;;;;;18.95;9.52;;;2.80;99.90;;;;;;5030489;28;20369;-61
2022/12/09 04:32:27;;;;;;;16.95;9.82;;;2.80;99.90;;;;;;5030615;28;20036;-63
2022/12/09 04:34:53;;;;;;;17.38;8.95;;;2.80;99.90;;;;;;5024563;28;20040;-63
2022/12/09 04:37:18;;;;;;;18.60;9.98;;;2.80;99.90;;;;;;5028410;28;20041;-63
2022/12/09 04:39:44;;;;;;;20.65;10.95;;;2.80;99.90;;;;;;5025713;28;20034;-64
2022/12/09 04:42:09;;;;;;;20.15;9.82;;;2.80;99.90;;;;;;5019111;28;20034;-62
2022/12/09 04:44:35;;;;;;;19.80;10.65;;;2.80;99.90;;;;;;5023691;28;20037;-61
2022/12/09 04:47:01;;;;;;;24.05;11.73;;;2.80;99.90;;;;;;5030152;28;20123;-62
2022/12/09 04:49:26;;;;;;;24.13;12.30;;;2.80;99.90;;;;;;5030188;28;20033;-62
2022/12/09 04:51:52;;;;;;;23.85;12.75;;;2.80;99.90;;;;;;5026378;28;20045;-62
2022/12/09 04:54:17;;;;;;;22.00;12.50;;;2.80;99.90;;;;;;5022387;28;20033;-62
2022/12/09 04:56:43;;;;;;;22.67;12.32;;;2.80;99.90;;;;;;5025784;28;20479;-62
2022/12/09 04:59:09;;;;;;;23.77;12.57;;;2.80;99.90;;;;;;5028924;28;20037;-62
2022/12/09 05:01:34;;;;;;;22.02;12.10;;;2.80;99.90;;;;;;5027751;28;20048;-62
2022/12/09 05:04:00;;;;;;;24.13;12.30;;;2.80;99.90;;;;;;5028482;28;20047;-61
2022/12/09 05:06:26;;;;;;;22.50;12.65;;;2.80;99.90;;;;;;5028161;28;20557;-62
2022/12/09 05:08:53;;;;;;;24.15;12.73;;;2.80;99.90;;;;;;5023127;28;20060;-61
2022/12/09 05:11:19;;;;;;;24.95;13.45;;;2.70;99.90;;;;;;5028998;28;20041;-61
2022/12/09 05:13:45;;;;;;;23.98;13.52;;;2.70;99.90;;;;;;5029117;28;20041;-61
2022/12/09 05:16:13;;;;;;;26.88;13.88;;;2.70;99.90;;;;;;5030253;28;20541;-62
2022/12/09 05:18:39;;;;;;;27.35;14.68;;;2.70;99.90;;;;;;5026426;28;20041;-63
2022/12/09 05:21:06;;;;;;;25.23;13.65;;;2.70;99.90;;;;;;5023116;28;20427;-63
2022/12/09 05:23:32;;;;;;;28.17;14.82;;;2.70;99.90;;;;;;5024151;28;20042;-62
2022/12/09 05:25:57;;;;;;;25.90;14.65;;;2.60;99.90;;;;;;5027238;28;20511;-62
2022/12/09 05:28:23;;;;;;;26.08;14.15;;;2.60;99.90;;;;;;5024324;28;20029;-62
2022/12/09 05:30:49;;;;;;;27.05;14.80;;;2.60;99.90;;;;;;5025094;28;20463;-63
2022/12/09 05:33:14;;;;;;;27.35;13.93;;;2.60;99.90;;;;;;4998690;28;20069;-63
2022/12/09 05:35:43;;;;;;;28.42;14.82;;;2.60;99.90;;;;;;5023989;28;20033;-64
2022/12/09 05:38:09;;;;;;;28.00;13.48;;;2.60;99.90;;;;;;5028571;28;20073;-63
2022/12/09 05:40:35;;;;;;;26.70;13.93;;;2.60;99.90;;;;;;5028754;28;20065;-63
2022/12/09 05:43:01;;;;;;;25.15;13.93;;;2.60;99.90;;;;;;5027488;28;20120;-62
2022/12/09 05:45:26;;;;;;;26.23;14.35;;;2.50;99.90;;;;;;5023401;28;20580;-63
2022/12/09 05:47:52;;;;;;;30.17;14.40;;;2.60;99.90;;;;;;5028131;28;20106;-62
2022/12/09 05:50:18;;;;;;;27.10;13.77;;;2.60;99.90;;;;;;5028775;28;20499;-63
2022/12/09 05:52:43;;;;;;;24.35;12.52;;;2.50;99.90;;;;;;5023494;28;20076;-63
2022/12/09 05:55:09;;;;;;;28.38;13.98;;;2.50;99.90;;;;;;5030177;28;20069;-64
2022/12/09 05:57:35;;;;;;;27.75;15.00;;;2.50;99.90;;;;;;5023215;28;20044;-63
2022/12/09 06:00:02;;;;;;;30.70;15.82;;;2.50;99.90;;;;;;5024145;28;20029;-63
2022/12/09 06:02:29;;;;;;;30.42;16.50;;;2.40;99.90;;;;;;5026915;28;20424;-63
2022/12/09 06:04:55;;;;;;;30.55;16.20;;;2.40;99.90;;;;;;5028399;28;20076;-63
2022/12/09 06:07:20;;;;;;;31.23;16.63;;;2.40;99.90;;;;;;5029881;28;20092;-63
2022/12/09 06:09:46;;;;;;;33.70;17.70;;;2.30;99.90;;;;;;5028244;28;20491;-63
2022/12/09 06:12:12;;;;;;;31.48;16.75;;;2.30;99.90;;;;;;5028450;28;20041;-63
2022/12/09 06:14:37;;;;;;;33.15;17.30;;;2.30;99.90;;;;;;5020861;28;20045;-63
2022/12/09 06:17:03;;;;;;;29.70;16.50;;;2.30;99.90;;;;;;5022908;28;20140;-63
2022/12/09 06:19:29;;;;;;;31.27;16.35;;;2.20;99.90;;;;;;5028504;28;20037;-63
2022/12/09 06:21:54;;;;;;;34.83;16.58;;;2.20;99.90;;;;;;5029185;28;20091;-63
2022/12/09 06:24:20;;;;;;;29.95;16.10;;;2.10;99.90;;;;;;5030092;28;20511;-61
2022/12/09 06:26:46;;;;;;;31.52;16.08;;;2.10;99.90;;;;;;5026136;28;20037;-63
2022/12/09 06:29:11;;;;;;;28.98;15.98;;;2.10;99.90;;;;;;5027598;28;20064;-64
2022/12/09 06:31:37;;;;;;;29.65;14.98;;;2.00;99.90;;;;;;5030796;28;20034;-63
2022/12/09 06:34:03;;;;;;;30.13;15.38;;;2.00;99.90;;;;;;5032367;28;20037;-62
2022/12/09 06:36:30;;;;;;;30.48;15.07;;;1.90;99.90;;;;;;5025866;28;20396;-63
2022/12/09 06:38:56;;;;;;;29.92;14.90;;;1.90;99.90;;;;;;5032622;28;20391;-63
2022/12/09 06:41:22;;;;;;;29.25;14.32;;;1.90;99.90;;;;;;5026692;28;20121;-64
2022/12/09 06:43:48;;;;;;;28.30;14.52;;;1.90;99.90;;;;;;5030439;28;20116;-63
2022/12/09 06:46:19;;;;;;;27.35;14.45;;;1.80;99.90;;;;;;5029105;28;20040;-63
2022/12/09 06:48:45;;;;;;;25.73;14.02;;;1.80;99.90;;;;;;5031162;28;20046;-63
2022/12/09 06:51:12;;;;;;;26.00;13.90;;;1.80;99.90;;;;;;5029968;28;20072;-63
2022/12/09 06:53:37;;;;;;;27.92;14.80;;;1.70;99.90;;;;;;5030891;28;20064;-63
2022/12/09 06:56:08;;;;;;;30.45;15.13;;;1.70;99.90;;;;;;5026568;28;20037;-63
2022/12/09 06:58:35;;;;;;;30.33;15.55;;;1.60;99.90;;;;;;5027857;28;20087;-63
2022/12/09 07:01:15;;;;;;;32.03;15.38;;;1.60;99.90;;;;;;5031031;28;20441;-63
2022/12/09 07:03:43;;;;;;;31.83;16.05;;;1.60;99.90;;;;;;5025482;28;20050;-63
2022/12/09 07:06:37;;;;;;;29.90;14.48;;;1.50;99.90;;;;;;5029805;28;20041;-63
2022/12/09 07:09:15;;;;;;;26.10;13.77;;;1.50;99.90;;;;;;5029037;28;20461;-63
2022/12/09 07:11:41;;;;;;;27.92;13.75;;;1.40;99.90;;;;;;5029589;28;20033;-64
2022/12/09 07:14:09;;;;;;;28.23;14.27;;;1.40;99.90;;;;;;5023543;28;20096;-64
2022/12/09 07:16:35;;;;;;;28.92;13.43;;;1.30;99.90;;;;;;5016444;28;20514;-63
2022/12/09 07:19:02;;;;;;;26.70;13.73;;;1.30;99.90;;;;;;5025243;28;20052;-64
2022/12/09 07:21:28;;;;;;;26.63;13.40;;;1.30;99.90;;;;;;5026272;28;20049;-64
2022/12/09 07:23:57;;;;;;;28.05;13.75;;;1.30;99.90;;;;;;5021653;28;20092;-64
2022/12/09 07:26:23;;;;;;;26.75;13.80;;;1.20;99.90;;;;;;5024581;28;20033;-64
2022/12/09 07:28:49;;;;;;;28.15;13.95;;;1.20;99.90;;;;;;5024968;28;20053;-63
2022/12/09 07:31:26;;;;;;;27.50;13.90;;;1.20;99.90;;;;;;5024580;28;20103;-64
2022/12/09 07:33:54;;;;;;;28.23;14.55;;;1.00;99.90;;;;;;5025902;28;20089;-63
2022/12/09 07:36:21;;;;;;;29.20;13.95;;;1.20;99.90;;;;;;5017708;28;20501;-63
2022/12/09 07:38:47;;;;;;;28.08;14.32;;;1.20;99.90;;;;;;5027795;28;20442;-63
2022/12/09 07:41:19;;;;;;;26.52;13.95;;;1.20;99.90;;;;;;5026714;28;20052;-63
2022/12/09 07:43:45;;;;;;;29.83;14.50;;;1.20;99.90;;;;;;5028020;28;20485;-63
2022/12/09 07:46:15;;;;;;;29.80;15.82;;;1.10;99.90;;;;;;5026446;28;20284;-63
2022/12/09 07:48:41;;;;;;;31.92;17.20;;;1.10;99.90;;;;;;5020861;28;20044;-63
2022/12/09 07:51:07;;;;;;;32.63;16.83;;;1.10;99.90;;;;;;5030069;28;20033;-63
2022/12/09 07:53:36;;;;;;;31.30;16.50;;;1.10;99.90;;;;;;5022407;28;20298;-63
2022/12/09 07:56:08;;;;;;;31.23;16.38;;;1.10;99.90;;;;;;5023562;28;20053;-63
2022/12/09 07:58:34;;;;;;;30.85;16.88;;;1.00;99.90;;;;;;5030341;28;20049;-63
2022/12/09 08:01:08;;;;;;;33.25;17.30;;;1.00;99.90;;;;;;5026628;28;20099;-64
2022/12/09 08:03:34;;;;;;;30.48;15.88;;;1.00;99.90;;;;;;5029057;28;20037;-64
2022/12/09 08:06:00;;;;;;;27.27;13.88;;;1.00;99.90;;;;;;5025355;28;20037;-64
2022/12/09 08:08:26;;;;;;;25.77;12.82;;;1.00;99.90;;;;;;5030526;28;20033;-64
2022/12/09 08:10:53;;;;;;;26.17;12.05;;;0.90;99.90;;;;;;5027622;28;20048;-63
2022/12/09 08:13:19;;;;;;;24.55;12.20;;;0.90;99.90;;;;;;5028970;28;20549;-62
2022/12/09 08:15:45;;;;;;;25.58;13.60;;;0.90;99.90;;;;;;5025120;28;20045;-63
2022/12/09 08:18:11;;;;;;;30.88;15.43;;;1.00;99.90;;;;;;5023420;28;20040;-63
2022/12/09 08:20:37;;;;;;;33.20;15.75;;;1.00;99.90;;;;;;5027255;28;20041;-61
2022/12/09 08:23:02;;;;;;;37.75;16.33;;;1.10;99.90;;;;;;5028489;28;20029;-63
2022/12/09 08:25:28;;;;;;;32.85;17.10;;;1.10;99.90;;;;;;5009726;28;20029;-63
2022/12/09 08:27:53;;;;;;;37.97;18.80;;;1.10;99.90;;;;;;5025883;28;20052;-61
2022/12/09 08:30:19;;;;;;;50.45;20.55;;;1.10;99.90;;;;;;5022885;28;20121;-61
2022/12/09 08:32:44;;;;;;;48.67;22.80;;;1.20;99.90;;;;;;5021008;28;21229;-63
2022/12/09 08:35:13;;;;;;;48.40;23.00;;;1.20;99.90;;;;;;5024157;28;20487;-63
2022/12/09 08:37:43;;;;;;;106.57;23.25;;;1.30;99.90;;;;;;5025821;28;20037;-63
2022/12/09 08:40:10;;;;;;;64.35;21.45;;;1.30;99.90;;;;;;5026499;28;20515;-64
2022/12/09 08:42:36;;;;;;;78.28;21.80;;;1.30;99.90;;;;;;5029490;28;20037;-61
2022/12/09 08:45:02;;;;;;;64.10;21.55;;;1.30;99.90;;;;;;5021619;28;20034;-62
2022/12/09 08:47:28;;;;;;;52.95;21.70;;;1.30;99.90;;;;;;5028204;28;20113;-62
2022/12/09 08:49:53;;;;;;;46.78;22.35;;;1.30;99.90;;;;;;5029970;28;20117;-63
2022/12/09 08:52:19;;;;;;;45.38;21.17;;;1.40;99.90;;;;;;5030253;28;20040;-63
2022/12/09 08:54:44;;;;;;;48.63;22.25;;;1.40;99.90;;;;;;5021902;28;20523;-63
2022/12/09 08:57:10;;;;;;;41.25;20.02;;;1.40;99.90;;;;;;5029151;28;20034;-63
2022/12/09 08:59:36;;;;;;;43.70;21.27;;;1.50;99.90;;;;;;5027394;28;20518;-62
2022/12/09 09:02:02;;;;;;;39.92;20.50;;;1.50;99.90;;;;;;5025357;28;20037;-64
2022/12/09 09:04:27;;;;;;;56.53;20.67;;;1.60;99.90;;;;;;5029488;28;20091;-63
2022/12/09 09:06:54;;;;;;;50.92;21.38;;;1.60;99.90;;;;;;5028027;28;20069;-63
2022/12/09 09:09:20;;;;;;;45.85;21.42;;;1.70;99.90;;;;;;5026620;28;20476;-64
2022/12/09 09:11:46;;;;;;;40.40;20.35;;;1.70;99.90;;;;;;5026557;28;20041;-64
2022/12/09 09:14:13;;;;;;;41.08;20.02;;;1.70;99.90;;;;;;5023773;28;20134;-62
2022/12/09 09:16:41;;;;;;;39.55;19.55;;;1.70;99.90;;;;;;5022947;28;20033;-63
2022/12/09 09:19:07;;;;;;;45.45;20.23;;;1.80;99.90;;;;;;5022862;28;20103;-62
2022/12/09 09:21:33;;;;;;;40.80;20.52;;;1.80;99.90;;;;;;5028481;28;20451;-63
2022/12/09 09:23:59;;;;;;;46.42;20.67;;;1.80;99.90;;;;;;5028447;28;20130;-63
2022/12/09 09:26:26;;;;;;;38.38;19.52;;;1.80;99.90;;;;;;5027782;28;20109;-63
2022/12/09 09:28:54;;;;;;;42.35;20.10;;;1.90;99.90;;;;;;5027110;28;20568;-64
2022/12/09 09:31:22;;;;;;;42.28;19.90;;;1.90;99.90;;;;;;5019503;28;20120;-63
2022/12/09 09:33:48;;;;;;;38.15;19.30;;;2.00;99.90;;;;;;5026784;28;20092;-63
2022/12/09 09:36:21;;;;;;;42.45;18.42;;;2.00;99.90;;;;;;5022158;28;20080;-62
2022/12/09 09:38:51;;;;;;;;;;;2.00;99.90;;;;;;5028733;28;20087;-62
2022/12/09 09:41:41;;;;;;;35.10;18.45;;;2.00;99.90;;;;;;5021308;28;20291;-62
2022/12/09 09:44:30;;;;;;;35.17;17.73;;;2.00;99.90;;;;;;5022075;28;20038;-63
2022/12/09 09:46:56;;;;;;;40.67;18.92;;;1.90;99.90;;;;;;5026638;28;20179;-63
2022/12/09 09:49:28;;;;;;;38.72;18.48;;;1.90;99.90;;;;;;5018468;28;20038;-63
2022/12/09 09:51:54;;;;;;;44.22;17.85;;;1.90;99.90;;;;;;5026448;28;20037;-63
2022/12/09 09:54:20;;;;;;;35.92;18.00;;;1.90;99.90;;;;;;5022835;28;20399;-63
2022/12/09 09:57:01;;;;;;;35.50;18.23;;;2.00;99.90;;;;;;5024549;28;20034;-65
2022/12/09 09:59:29;;;;;;;41.00;18.95;;;2.00;99.90;;;;;;5021661;28;20526;-63
2022/12/09 10:02:01;;;;;;;37.13;19.00;;;2.10;99.90;;;;;;5032302;28;20502;-63
2022/12/09 10:04:44;;;;;;;51.42;19.73;;;2.10;99.90;;;;;;5027212;28;20029;-63
2022/12/09 10:07:50;;;;;;;38.78;18.98;;;2.00;99.90;;;;;;5027412;28;20496;-63
2022/12/09 10:10:39;;;;;;;37.40;18.63;;;2.00;99.90;;;;;;5031017;28;20037;-63
2022/12/09 10:13:08;;;;;;;37.60;18.60;;;2.00;99.90;;;;;;5026140;28;20496;-64
2022/12/09 10:15:40;;;;;;;37.50;18.08;;;2.00;99.90;;;;;;5032643;28;20042;-63
2022/12/09 10:18:41;;;;;;;38.35;19.25;;;2.00;99.90;;;;;;5032190;28;20164;-64
2022/12/09 10:21:19;;;;;;;37.90;18.25;;;2.00;99.90;;;;;;5024101;28;20041;-63
2022/12/09 10:23:46;;;;;;;35.80;18.67;;;2.00;99.90;;;;;;5030233;28;20046;-63
2022/12/09 10:26:29;;;;;;;41.78;20.35;;;2.00;99.90;;;;;;5022922;28;20068;-63
2022/12/09 10:29:10;;;;;;;47.63;21.85;;;2.00;99.90;;;;;;5031091;28;20029;-63
2022/12/09 10:31:36;;;;;;;46.10;22.35;;;2.10;99.90;;;;;;5028318;28;20095;-63
2022/12/09 10:34:01;;;;;;;43.47;21.42;;;2.00;99.90;;;;;;5031880;28;20038;-63
2022/12/09 10:36:29;;;;;;;46.95;22.77;;;2.00;99.90;;;;;;5032723;28;20065;-63
2022/12/09 10:38:55;;;;;;;44.90;22.98;;;2.10;99.90;;;;;;5032902;28;20030;-63
2022/12/09 10:44:20;;;;;;;50.53;24.50;;;2.20;99.90;;;;;;5029767;28;20049;-63
2022/12/09 10:46:46;;;;;;;51.05;23.42;;;2.20;99.90;;;;;;5026723;28;20045;-63
2022/12/09 10:49:19;;;;;;;47.92;22.98;;;2.30;99.90;;;;;;5020583;28;20033;-63
2022/12/09 10:51:51;;;;;;;45.63;21.80;;;2.30;99.90;;;;;;5030992;28;20567;-63
2022/12/09 10:54:39;;;;;;;49.72;21.63;;;2.30;99.90;;;;;;5024211;28;20038;-63
2022/12/09 10:57:12;;;;;;;41.47;20.90;;;2.30;99.90;;;;;;5024844;28;20033;-63
2022/12/09 10:59:40;;;;;;;44.72;20.80;;;2.40;99.90;;;;;;5030112;28;20065;-63
2022/12/09 11:02:08;;;;;;;46.13;21.67;;;2.40;99.90;;;;;;5027824;28;20037;-63
2022/12/09 11:04:36;;;;;;;43.72;21.55;;;2.40;99.90;;;;;;5028948;28;20124;-63
2022/12/09 11:07:03;;;;;;;41.63;20.48;;;2.40;99.90;;;;;;5030558;28;20034;-63
2022/12/09 11:09:34;;;;;;;44.55;21.02;;;2.50;99.90;;;;;;5031084;28;20422;-63
2022/12/09 11:12:02;;;;;;;41.97;20.73;;;2.60;99.90;;;;;;5030029;28;20507;-63
2022/12/09 11:14:38;;;;;;;43.88;20.40;;;2.60;99.90;;;;;;5016077;28;20115;-63
2022/12/09 11:17:17;;;;;;;44.45;20.98;;;2.60;99.90;;;;;;5017156;28;20033;-63
2022/12/09 11:19:46;;;;;;;42.25;21.20;;;2.60;99.90;;;;;;5020665;28;20033;-63
2022/12/09 11:22:21;;;;;;;39.83;19.83;;;2.60;99.90;;;;;;5024547;28;20037;-63
2022/12/09 11:24:47;;;;;;;42.15;20.85;;;2.60;99.90;;;;;;5030628;28;20503;-63
2022/12/09 11:27:28;;;;;;;46.03;22.13;;;2.60;99.90;;;;;;5016343;28;20431;-63
2022/12/09 11:30:14;;;;;;;43.10;22.00;;;2.60;99.90;;;;;;5027263;28;20451;-63
2022/12/09 11:33:11;;;;;;;46.60;21.67;;;2.60;99.90;;;;;;5031621;28;20034;-63
2022/12/09 11:35:51;;;;;;;44.30;21.25;;;2.60;99.90;;;;;;5017558;28;20046;-63
2022/12/09 11:38:33;;;;;;;41.40;21.00;;;2.60;99.90;;;;;;5031717;28;20040;-63
2022/12/09 11:44:26;;;;;;;44.08;21.00;;;2.60;99.90;;;;;;5014927;28;20042;-63
2022/12/09 11:47:03;;;;;;;43.22;20.70;;;2.70;99.90;;;;;;5030789;28;20057;-63
2022/12/09 11:49:33;;;;;;;46.17;22.08;;;2.70;99.90;;;;;;5027480;28;20087;-63
2022/12/09 11:52:22;;;;;;;43.45;21.35;;;2.70;99.90;;;;;;5031243;28;20124;-63
2022/12/09 11:55:17;;;;;;;42.92;21.35;;;2.80;99.90;;;;;;5027085;28;20030;-63
2022/12/09 11:58:03;;;;;;;40.88;20.00;;;2.90;99.90;;;;;;5021988;28;20063;-63
2022/12/09 12:01:10;;;;;;;41.85;21.15;;;3.00;99.90;;;;;;5029996;28;20060;-63
2022/12/09 12:03:43;;;;;;;39.67;20.33;;;3.00;99.90;;;;;;5026825;28;20106;-63
2022/12/09 12:06:21;;;;;;;45.95;21.48;;;3.00;99.90;;;;;;5024561;28;20033;-63
2022/12/09 12:08:55;;;;;;;46.28;21.23;;;2.90;99.90;;;;;;5029448;28;20364;-63
2022/12/09 12:11:27;;;;;;;42.90;21.08;;;2.90;99.90;;;;;;5028571;28;20065;-63
2022/12/09 12:14:02;;;;;;;42.03;20.98;;;2.90;99.90;;;;;;5026216;28;20396;-63
2022/12/09 12:16:34;;;;;;;41.42;21.05;;;2.90;99.90;;;;;;5028502;28;20510;-63
2022/12/09 12:19:31;;;;;;;40.63;20.53;;;3.00;99.90;;;;;;5045345;28;20052;-63
2022/12/09 12:22:16;;;;;;;38.75;19.35;;;3.10;99.90;;;;;;5030466;28;20067;-63
2022/12/09 12:24:50;;;;;;;39.70;19.20;;;3.10;99.90;;;;;;5025925;28;20193;-63
2022/12/09 12:27:41;;;;;;;39.67;18.90;;;3.10;99.90;;;;;;5029496;28;20139;-63
2022/12/09 12:30:19;;;;;;;35.78;16.95;;;3.20;99.90;;;;;;5029389;28;20049;-63
2022/12/09 12:33:22;;;;;;;38.33;18.85;;;3.60;99.90;;;;;;5018685;28;20034;-63
2022/12/09 12:36:30;;;;;;;36.25;18.42;;;3.80;99.90;;;;;;5029126;28;20412;-63
2022/12/09 12:39:27;;;;;;;31.65;16.27;;;4.00;99.90;;;;;;5005261;28;20050;-62
2022/12/09 12:42:15;;;;;;;35.42;16.90;;;4.30;99.90;;;;;;5011561;28;20148;-63
2022/12/09 12:48:01;;;;;;;32.20;15.90;;;4.30;99.90;;;;;;5028762;28;20037;-63
2022/12/09 12:51:05;;;;;;;34.03;15.77;;;4.00;99.90;;;;;;5030655;28;20052;-63
2022/12/09 12:53:51;;;;;;;32.97;15.45;;;3.80;99.90;;;;;;5022192;28;20152;-63
2022/12/09 12:56:30;;;;;;;28.88;15.00;;;3.60;99.90;;;;;;5024080;28;20065;-63
2022/12/09 12:59:12;;;;;;;32.97;15.90;;;3.50;99.90;;;;;;5029874;28;20041;-62
2022/12/09 13:01:59;;;;;;;30.10;14.93;;;3.40;99.90;;;;;;5028808;28;20088;-63
2022/12/09 13:04:48;;;;;;;31.63;15.15;;;3.40;99.90;;;;;;5028378;28;20304;-63